createdAt,value
2023-04-27T00:00:11.000Z,0
2023-04-27T00:01:27.000Z,0
2023-04-27T00:02:43.000Z,0
2023-04-27T00:03:58.142Z,0
2023-04-27T00:05:15.000Z,0
2023-04-27T00:06:31.000Z,0
2023-04-27T00:07:46.710Z,0
2023-04-27T00:09:03.000Z,0
2023-04-27T00:10:20.000Z,0
2023-04-27T00:11:36.000Z,0
2023-04-27T00:12:52.000Z,0
2023-04-27T00:14:07.655Z,0
2023-04-27T00:15:24.000Z,0
2023-04-27T00:16:41.000Z,0
2023-04-27T00:17:57.000Z,0
2023-04-27T00:19:13.000Z,0
2023-04-27T00:20:28.000Z,0
2023-04-27T00:21:44.000Z,0
2023-04-27T00:23:01.000Z,0
2023-04-27T00:24:17.000Z,0
2023-04-27T00:25:33.000Z,0
2023-04-27T00:26:48.563Z,0
2023-04-27T00:28:05.000Z,0
2023-04-27T00:29:21.000Z,0
2023-04-27T00:30:38.000Z,0
2023-04-27T00:31:54.000Z,0
2023-04-27T00:33:10.000Z,0
2023-04-27T00:34:26.000Z,0
2023-04-27T00:35:42.000Z,0
2023-04-27T00:36:58.000Z,0
2023-04-27T00:38:13.282Z,0
2023-04-27T00:39:30.000Z,0
2023-04-27T00:40:46.000Z,0
2023-04-27T00:42:02.000Z,0
2023-04-27T00:43:18.038Z,0
2023-04-27T00:44:35.000Z,0
2023-04-27T00:45:51.000Z,0
2023-04-27T00:47:06.606Z,0
2023-04-27T00:48:23.000Z,0
2023-04-27T00:49:39.000Z,0
2023-04-27T00:50:56.000Z,0
2023-04-27T00:52:12.000Z,0
2023-04-27T00:53:26.568Z,0
2023-04-27T00:54:42.756Z,0
2023-04-27T00:55:59.000Z,0
2023-04-27T00:57:15.134Z,0
2023-04-27T00:58:32.000Z,0
2023-04-27T00:59:48.000Z,0
2023-04-27T01:01:04.000Z,0
2023-04-27T01:02:20.000Z,0
2023-04-27T01:03:36.079Z,0
2023-04-27T01:04:53.000Z,0
2023-04-27T01:06:09.000Z,0
2023-04-27T01:07:25.000Z,0
2023-04-27T01:08:40.836Z,0
2023-04-27T01:09:57.000Z,0
2023-04-27T01:11:12.230Z,0
2023-04-27T01:12:28.420Z,0
2023-04-27T01:13:44.608Z,0
2023-04-27T01:15:01.000Z,0
2023-04-27T01:16:17.000Z,0
2023-04-27T01:17:33.000Z,0
2023-04-27T01:18:48.387Z,0
2023-04-27T01:20:05.000Z,0
2023-04-27T01:21:21.000Z,0
2023-04-27T01:22:36.958Z,0
2023-04-27T01:23:54.000Z,0
2023-04-27T01:25:09.339Z,0
2023-04-27T01:26:26.000Z,0
2023-04-27T01:27:41.720Z,0
2023-04-27T01:28:58.000Z,0
2023-04-27T01:30:15.000Z,0
2023-04-27T01:31:30.291Z,0
2023-04-27T01:32:46.481Z,0
2023-04-27T01:34:01.688Z,0
2023-04-27T01:35:17.879Z,0
2023-04-27T01:36:35.000Z,0
2023-04-27T01:37:51.000Z,0
2023-04-27T01:39:07.000Z,0
2023-04-27T01:40:22.641Z,0
2023-04-27T01:41:39.000Z,0
2023-04-27T01:42:56.000Z,0
2023-04-27T01:44:12.000Z,0
2023-04-27T01:45:28.000Z,0
2023-04-27T01:46:44.000Z,0
2023-04-27T01:48:00.000Z,0
2023-04-27T01:49:16.000Z,0
2023-04-27T01:50:32.000Z,0
2023-04-27T01:51:47.371Z,0
2023-04-27T01:53:04.000Z,0
2023-04-27T01:54:20.000Z,0
2023-04-27T01:55:35.943Z,0
2023-04-27T01:56:52.134Z,0
2023-04-27T01:58:09.000Z,0
2023-04-27T01:59:25.000Z,0
2023-04-27T02:00:41.000Z,0
2023-04-27T02:01:57.000Z,0
2023-04-27T02:03:14.000Z,0
2023-04-27T02:04:30.000Z,0
2023-04-27T02:05:46.000Z,0
2023-04-27T02:07:01.000Z,0
2023-04-27T02:08:17.000Z,0
2023-04-27T02:09:33.058Z,0
2023-04-27T02:10:49.249Z,0
2023-04-27T02:12:06.000Z,0
2023-04-27T02:13:22.000Z,0
2023-04-27T02:14:38.000Z,0
2023-04-27T02:15:55.000Z,0
2023-04-27T02:17:11.000Z,0
2023-04-27T02:18:26.393Z,0
2023-04-27T02:19:42.584Z,0
2023-04-27T02:20:59.000Z,0
2023-04-27T02:22:15.000Z,0
2023-04-27T02:23:31.000Z,0
2023-04-27T02:24:47.000Z,0
2023-04-27T02:26:03.000Z,0
2023-04-27T02:27:18.743Z,0
2023-04-27T02:28:34.934Z,0
2023-04-27T02:29:52.000Z,0
2023-04-27T02:31:07.315Z,0
2023-04-27T02:32:24.000Z,0
2023-04-27T02:33:40.000Z,0
2023-04-27T02:34:56.000Z,0
2023-04-27T02:36:13.000Z,0
2023-04-27T02:37:29.000Z,0
2023-04-27T02:38:45.000Z,0
2023-04-27T02:40:00.000Z,0
2023-04-27T02:41:16.000Z,0
2023-04-27T02:42:33.000Z,0
2023-04-27T02:43:49.000Z,0
2023-04-27T02:45:05.000Z,0
2023-04-27T02:46:21.000Z,0
2023-04-27T02:47:37.000Z,0
2023-04-27T02:48:54.000Z,0
2023-04-27T02:50:10.000Z,0
2023-04-27T02:51:25.381Z,0
2023-04-27T02:52:42.000Z,0
2023-04-27T02:53:58.000Z,0
2023-04-27T02:55:13.953Z,0
2023-04-27T02:56:29.161Z,0
2023-04-27T02:57:46.000Z,0
2023-04-27T02:59:02.000Z,0
2023-04-27T03:00:18.000Z,0
2023-04-27T03:01:34.000Z,0
2023-04-27T03:02:51.000Z,0
2023-04-27T03:04:07.000Z,0
2023-04-27T03:05:23.000Z,0
2023-04-27T03:06:39.000Z,0
2023-04-27T03:07:55.000Z,0
2023-04-27T03:09:12.000Z,0
2023-04-27T03:10:28.000Z,0
2023-04-27T03:11:44.000Z,0
2023-04-27T03:12:59.000Z,0
2023-04-27T03:14:15.000Z,0
2023-04-27T03:15:32.000Z,0
2023-04-27T03:16:48.000Z,0
2023-04-27T03:18:03.416Z,0
2023-04-27T03:19:20.000Z,0
2023-04-27T03:20:36.000Z,0
2023-04-27T03:21:52.000Z,0
2023-04-27T03:23:09.000Z,0
2023-04-27T03:24:25.000Z,0
2023-04-27T03:25:41.000Z,0
2023-04-27T03:26:57.000Z,0
2023-04-27T03:28:12.941Z,0
2023-04-27T03:29:29.000Z,0
2023-04-27T03:30:45.000Z,0
2023-04-27T03:32:01.000Z,4
2023-04-27T03:33:17.000Z,4
2023-04-27T03:34:33.000Z,0
2023-04-27T03:35:50.000Z,4
2023-04-27T03:37:06.000Z,4
2023-04-27T03:38:22.000Z,4
2023-04-27T03:39:38.000Z,4
2023-04-27T03:40:54.000Z,4
2023-04-27T03:42:11.000Z,8
2023-04-27T03:43:27.000Z,8
2023-04-27T03:44:43.000Z,12
2023-04-27T03:45:58.000Z,12
2023-04-27T03:47:14.000Z,16
2023-04-27T03:48:31.000Z,20
2023-04-27T03:49:47.000Z,24
2023-04-27T03:51:03.000Z,28
2023-04-27T03:52:19.000Z,36
2023-04-27T03:53:35.000Z,44
2023-04-27T03:54:51.000Z,48
2023-04-27T03:56:08.000Z,56
2023-04-27T03:57:24.000Z,64
2023-04-27T03:58:40.000Z,76
2023-04-27T03:59:56.000Z,92
2023-04-27T04:01:12.000Z,104
2023-04-27T04:02:27.140Z,120
2023-04-27T04:03:44.000Z,132
2023-04-27T04:05:00.000Z,148
2023-04-27T04:06:16.000Z,172
2023-04-27T04:07:32.000Z,192
2023-04-27T04:08:48.094Z,212
2023-04-27T04:10:05.000Z,236
2023-04-27T04:11:21.000Z,260
2023-04-27T04:12:37.000Z,288
2023-04-27T04:13:53.000Z,320
2023-04-27T04:15:10.000Z,352
2023-04-27T04:16:26.000Z,384
2023-04-27T04:17:42.000Z,416
2023-04-27T04:18:57.000Z,452
2023-04-27T04:20:13.000Z,492
2023-04-27T04:21:30.000Z,532
2023-04-27T04:22:46.000Z,576
2023-04-27T04:24:02.000Z,616
2023-04-27T04:25:18.000Z,660
2023-04-27T04:26:34.000Z,704
2023-04-27T04:27:49.971Z,748
2023-04-27T04:29:06.161Z,792
2023-04-27T04:30:23.000Z,836
2023-04-27T04:31:39.000Z,884
2023-04-27T04:32:55.000Z,928
2023-04-27T04:34:11.000Z,976
2023-04-27T04:35:27.000Z,1024
2023-04-27T04:36:43.000Z,1076
2023-04-27T04:37:59.000Z,1280
2023-04-27T04:39:15.000Z,1816
2023-04-27T04:40:31.000Z,2136
2023-04-27T04:41:48.000Z,2092
2023-04-27T04:43:04.000Z,1700
2023-04-27T04:44:20.000Z,1796
2023-04-27T04:45:36.000Z,2320
2023-04-27T04:46:51.848Z,2660
2023-04-27T04:48:09.000Z,2712
2023-04-27T04:49:25.000Z,2772
2023-04-27T04:50:41.000Z,2852
2023-04-27T04:51:56.000Z,3080
2023-04-27T04:53:12.000Z,3228
2023-04-27T04:54:29.000Z,3280
2023-04-27T04:55:45.000Z,3416
2023-04-27T04:57:01.000Z,3256
2023-04-27T04:58:17.000Z,2552
2023-04-27T04:59:32.768Z,2364
2023-04-27T05:00:49.000Z,2388
2023-04-27T05:02:06.000Z,2452
2023-04-27T05:03:22.000Z,2848
2023-04-27T05:04:38.000Z,3756
2023-04-27T05:05:54.000Z,4168
2023-04-27T05:07:10.000Z,4476
2023-04-27T05:08:26.000Z,4672
2023-04-27T05:09:42.000Z,4696
2023-04-27T05:10:58.000Z,4888
2023-04-27T05:12:14.000Z,5096
2023-04-27T05:13:30.881Z,5216
2023-04-27T05:14:47.000Z,4776
2023-04-27T05:16:03.000Z,3896
2023-04-27T05:17:19.000Z,3460
2023-04-27T05:18:35.000Z,3836
2023-04-27T05:19:51.000Z,3536
2023-04-27T05:21:07.021Z,3580
2023-04-27T05:22:24.000Z,4688
2023-04-27T05:23:40.000Z,5676
2023-04-27T05:24:55.000Z,6136
2023-04-27T05:26:11.000Z,6224
2023-04-27T05:27:27.000Z,6252
2023-04-27T05:28:43.178Z,6468
2023-04-27T05:29:59.368Z,6676
2023-04-27T05:31:15.558Z,6652
2023-04-27T05:32:31.000Z,6928
2023-04-27T05:33:47.000Z,5856
2023-04-27T05:35:04.000Z,4032
2023-04-27T05:36:20.000Z,3672
2023-04-27T05:37:36.000Z,3624
2023-04-27T05:38:52.000Z,3668
2023-04-27T05:40:08.000Z,3776
2023-04-27T05:41:25.000Z,4816
2023-04-27T05:42:41.000Z,6516
2023-04-27T05:43:57.000Z,5644
2023-04-27T05:45:13.000Z,3980
2023-04-27T05:46:29.000Z,5560
2023-04-27T05:47:46.000Z,7344
2023-04-27T05:49:01.000Z,7624
2023-04-27T05:50:17.000Z,7884
2023-04-27T05:51:33.000Z,8504
2023-04-27T05:52:49.000Z,9192
2023-04-27T05:54:05.015Z,9272
2023-04-27T05:55:22.000Z,9404
2023-04-27T05:56:37.396Z,8308
2023-04-27T05:57:54.000Z,5240
2023-04-27T05:59:10.000Z,4604
2023-04-27T06:00:26.000Z,7148
2023-04-27T06:01:42.156Z,9872
2023-04-27T06:02:58.347Z,11128
2023-04-27T06:04:15.000Z,11016
2023-04-27T06:05:30.000Z,11260
2023-04-27T06:06:46.000Z,11380
2023-04-27T06:08:03.000Z,10032
2023-04-27T06:09:18.312Z,9744
2023-04-27T06:10:34.501Z,6688
2023-04-27T06:11:51.000Z,4548
2023-04-27T06:13:07.000Z,4384
2023-04-27T06:14:24.000Z,4364
2023-04-27T06:15:40.000Z,4376
2023-04-27T06:16:56.000Z,4420
2023-04-27T06:18:12.000Z,5364
2023-04-27T06:19:28.000Z,9744
2023-04-27T06:20:44.019Z,13364
2023-04-27T06:21:59.225Z,14816
2023-04-27T06:23:16.000Z,14976
2023-04-27T06:24:32.000Z,15584
2023-04-27T06:25:48.000Z,15616
2023-04-27T06:27:03.984Z,14976
2023-04-27T06:28:21.000Z,16896
2023-04-27T06:29:37.000Z,18112
2023-04-27T06:30:53.000Z,19072
2023-04-27T06:32:09.000Z,19840
2023-04-27T06:33:25.000Z,12864
2023-04-27T06:34:42.000Z,5400
2023-04-27T06:35:58.000Z,5476
2023-04-27T06:37:14.000Z,13148
2023-04-27T06:38:29.000Z,20608
2023-04-27T06:39:45.000Z,17568
2023-04-27T06:41:02.000Z,7288
2023-04-27T06:42:18.000Z,5780
2023-04-27T06:43:34.000Z,14396
2023-04-27T06:44:49.660Z,14688
2023-04-27T06:46:06.000Z,5452
2023-04-27T06:47:23.000Z,4672
2023-04-27T06:48:39.000Z,4640
2023-04-27T06:49:55.000Z,4584
2023-04-27T06:51:11.000Z,4504
2023-04-27T06:52:27.000Z,4504
2023-04-27T06:53:43.000Z,4672
2023-04-27T06:54:59.000Z,11364
2023-04-27T06:56:15.000Z,14372
2023-04-27T06:57:31.000Z,4784
2023-04-27T06:58:47.000Z,4604
2023-04-27T07:00:02.957Z,4532
2023-04-27T07:01:20.000Z,4616
2023-04-27T07:02:36.000Z,4636
2023-04-27T07:03:52.000Z,4592
2023-04-27T07:05:08.000Z,4680
2023-04-27T07:06:23.908Z,4704
2023-04-27T07:07:41.000Z,4724
2023-04-27T07:08:57.000Z,4736
2023-04-27T07:10:12.477Z,4752
2023-04-27T07:11:28.000Z,4740
2023-04-27T07:12:44.000Z,4708
2023-04-27T07:14:01.000Z,4700
2023-04-27T07:15:17.000Z,4696
2023-04-27T07:16:33.000Z,4748
2023-04-27T07:17:49.000Z,4800
2023-04-27T07:19:05.000Z,4816
2023-04-27T07:20:21.015Z,4776
2023-04-27T07:21:38.000Z,4776
2023-04-27T07:22:54.000Z,4800
2023-04-27T07:24:10.000Z,4764
2023-04-27T07:25:26.000Z,4732
2023-04-27T07:26:42.000Z,4716
2023-04-27T07:27:58.000Z,4708
2023-04-27T07:29:14.000Z,4716
2023-04-27T07:30:29.552Z,4756
2023-04-27T07:31:46.000Z,4760
2023-04-27T07:33:02.000Z,4812
2023-04-27T07:34:19.000Z,4832
2023-04-27T07:35:35.000Z,4844
2023-04-27T07:36:51.000Z,4868
2023-04-27T07:38:06.690Z,4876
2023-04-27T07:39:22.880Z,4984
2023-04-27T07:40:40.000Z,5024
2023-04-27T07:41:56.000Z,5020
2023-04-27T07:43:12.000Z,5020
2023-04-27T07:44:26.654Z,5096
2023-04-27T07:45:42.845Z,5176
2023-04-27T07:46:59.034Z,5168
2023-04-27T07:48:16.000Z,5160
2023-04-27T07:49:32.000Z,5196
2023-04-27T07:50:48.000Z,5304
2023-04-27T07:52:04.000Z,5528
2023-04-27T07:53:20.000Z,5324
2023-04-27T07:54:37.000Z,5280
2023-04-27T07:55:53.000Z,5292
2023-04-27T07:57:09.000Z,5280
2023-04-27T07:58:25.000Z,5320
2023-04-27T07:59:40.933Z,5340
2023-04-27T08:00:57.000Z,5372
2023-04-27T08:02:13.000Z,5316
2023-04-27T08:03:29.000Z,5348
2023-04-27T08:04:45.000Z,5312
2023-04-27T08:06:00.898Z,5296
2023-04-27T08:07:18.000Z,5340
2023-04-27T08:08:33.277Z,5456
2023-04-27T08:09:50.000Z,5520
2023-04-27T08:11:06.000Z,5488
2023-04-27T08:12:22.000Z,5384
2023-04-27T08:13:39.000Z,5444
2023-04-27T08:14:55.000Z,5408
2023-04-27T08:16:11.000Z,5380
2023-04-27T08:17:26.000Z,5452
2023-04-27T08:18:42.000Z,5456
2023-04-27T08:19:59.000Z,5452
2023-04-27T08:21:15.000Z,5448
2023-04-27T08:22:31.000Z,5456
2023-04-27T08:24:35.570Z,5452
2023-04-27T08:25:03.000Z,5432
2023-04-27T08:26:19.000Z,5444
2023-04-27T08:27:35.139Z,5452
2023-04-27T08:28:52.000Z,5472
2023-04-27T08:30:08.000Z,5508
2023-04-27T08:31:23.709Z,5508
2023-04-27T08:32:40.000Z,5508
2023-04-27T08:33:57.000Z,5548
2023-04-27T08:35:12.000Z,5580
2023-04-27T08:36:28.000Z,5612
2023-04-27T08:37:44.000Z,5624
2023-04-27T08:39:00.000Z,5600
2023-04-27T08:40:17.000Z,5604
2023-04-27T08:41:32.248Z,5612
2023-04-27T08:42:48.438Z,5700
2023-04-27T08:44:05.000Z,5640
2023-04-27T08:45:21.000Z,5580
2023-04-27T08:46:38.000Z,5548
2023-04-27T08:47:54.000Z,5540
2023-04-27T08:49:10.000Z,5492
2023-04-27T08:50:26.000Z,5488
2023-04-27T08:51:41.000Z,5464
2023-04-27T08:52:57.000Z,5444
2023-04-27T08:54:14.000Z,5460
2023-04-27T08:55:29.357Z,5532
2023-04-27T08:56:46.000Z,5508
2023-04-27T08:58:02.000Z,5544
2023-04-27T08:59:18.000Z,5584
2023-04-27T09:00:34.117Z,5616
2023-04-27T09:01:51.000Z,5652
2023-04-27T09:03:07.000Z,5668
2023-04-27T09:04:23.000Z,5676
2023-04-27T09:05:39.000Z,5688
2023-04-27T09:06:55.068Z,5692
2023-04-27T09:08:11.000Z,5680
2023-04-27T09:09:26.464Z,5692
2023-04-27T09:10:43.000Z,5792
2023-04-27T09:11:59.000Z,5812
2023-04-27T09:13:16.000Z,5952
2023-04-27T09:14:32.000Z,6548
2023-04-27T09:15:48.000Z,33408
2023-04-27T09:17:03.606Z,60128
2023-04-27T09:18:20.000Z,40608
2023-04-27T09:19:35.984Z,13468
2023-04-27T09:20:52.175Z,7624
2023-04-27T09:22:08.365Z,9296
2023-04-27T09:23:25.000Z,11252
2023-04-27T09:24:40.000Z,9956
2023-04-27T09:25:56.000Z,6484
2023-04-27T09:27:13.000Z,6164
2023-04-27T09:28:29.000Z,6092
2023-04-27T09:29:45.000Z,6056
2023-04-27T09:31:01.000Z,6084
2023-04-27T09:32:17.000Z,6152
2023-04-27T09:33:34.000Z,6208
2023-04-27T09:34:50.000Z,6132
2023-04-27T09:36:06.000Z,5984
2023-04-27T09:37:21.663Z,5904
2023-04-27T09:38:38.000Z,5888
2023-04-27T09:39:54.044Z,5944
2023-04-27T09:41:09.250Z,6004
2023-04-27T09:42:26.000Z,6052
2023-04-27T09:43:42.000Z,6092
2023-04-27T09:44:58.000Z,6108
2023-04-27T09:46:15.000Z,6088
2023-04-27T09:47:30.000Z,5996
2023-04-27T09:48:46.000Z,6088
2023-04-27T09:50:02.000Z,6116
2023-04-27T09:51:17.793Z,6164
2023-04-27T09:52:34.000Z,6140
2023-04-27T09:53:51.000Z,6088
2023-04-27T09:55:07.000Z,6092
2023-04-27T09:56:22.555Z,6104
2023-04-27T09:57:38.745Z,5932
2023-04-27T09:58:55.000Z,6088
2023-04-27T10:00:12.000Z,6132
2023-04-27T10:01:28.000Z,6120
2023-04-27T10:02:44.000Z,6208
2023-04-27T10:03:59.000Z,6376
2023-04-27T10:05:14.903Z,6636
2023-04-27T10:06:31.093Z,6676
2023-04-27T10:07:47.282Z,7024
2023-04-27T10:09:03.473Z,6984
2023-04-27T10:10:20.000Z,7220
2023-04-27T10:11:35.854Z,7412
2023-04-27T10:12:53.000Z,8012
2023-04-27T10:14:09.000Z,8496
2023-04-27T10:15:24.424Z,9860
2023-04-27T10:16:41.000Z,48960
2023-04-27T10:17:57.000Z,34496
2023-04-27T10:19:13.000Z,8060
2023-04-27T10:20:29.000Z,7804
2023-04-27T10:21:44.390Z,7900
2023-04-27T10:23:01.000Z,8844
2023-04-27T10:24:17.000Z,27744
2023-04-27T10:25:32.961Z,17600
2023-04-27T10:26:50.000Z,16320
2023-04-27T10:28:06.000Z,35168
2023-04-27T10:29:21.530Z,21696
2023-04-27T10:30:38.000Z,33312
2023-04-27T10:31:54.000Z,19008
2023-04-27T10:33:11.000Z,9380
2023-04-27T10:34:27.000Z,13360
2023-04-27T10:35:43.000Z,53312
2023-04-27T10:36:58.000Z,29088
2023-04-27T10:38:13.877Z,23872
2023-04-27T10:39:31.000Z,35296
2023-04-27T10:40:47.000Z,39776
2023-04-27T10:42:03.000Z,57408
2023-04-27T10:43:19.000Z,34272
2023-04-27T10:44:34.825Z,15672
2023-04-27T10:45:51.016Z,17500
2023-04-27T10:47:08.000Z,15128
2023-04-27T10:48:24.000Z,12860
2023-04-27T10:49:40.000Z,12452
2023-04-27T10:50:56.000Z,14464
2023-04-27T10:52:12.000Z,24224
2023-04-27T10:53:27.165Z,39392
2023-04-27T10:54:43.353Z,67872
2023-04-27T10:55:59.542Z,39136
2023-04-27T10:57:16.000Z,39552
2023-04-27T10:58:31.919Z,31264
2023-04-27T10:59:49.000Z,32416
2023-04-27T11:01:05.000Z,54560
2023-04-27T11:02:21.000Z,42048
2023-04-27T11:03:37.000Z,42272
2023-04-27T11:04:53.000Z,66016
2023-04-27T11:06:10.000Z,55744
2023-04-27T11:07:25.240Z,30656
2023-04-27T11:08:41.430Z,32352
2023-04-27T11:09:57.000Z,13236
2023-04-27T11:11:12.823Z,14156
2023-04-27T11:12:30.000Z,35968
2023-04-27T11:13:46.000Z,64544
2023-04-27T11:15:02.000Z,40576
2023-04-27T11:16:17.579Z,42880
2023-04-27T11:17:34.000Z,66368
2023-04-27T11:18:50.000Z,49888
2023-04-27T11:20:07.000Z,33344
2023-04-27T11:21:22.333Z,16500
2023-04-27T11:22:39.000Z,14084
2023-04-27T11:23:54.711Z,13532
2023-04-27T11:25:10.900Z,12852
2023-04-27T11:26:27.000Z,12140
2023-04-27T11:27:43.000Z,12308
2023-04-27T11:28:59.000Z,12124
2023-04-27T11:30:15.000Z,11732
2023-04-27T11:31:31.000Z,11232
2023-04-27T11:32:48.000Z,10868
2023-04-27T11:34:03.234Z,10612
2023-04-27T11:35:19.421Z,10340
2023-04-27T11:36:35.609Z,10400
2023-04-27T11:37:52.000Z,10260
2023-04-27T11:39:08.000Z,10420
2023-04-27T11:40:24.175Z,10796
2023-04-27T11:41:41.000Z,11372
2023-04-27T11:42:56.000Z,12060
2023-04-27T11:44:12.000Z,12836
2023-04-27T11:45:28.000Z,13368
2023-04-27T11:46:45.000Z,13964
2023-04-27T11:48:01.000Z,14140
2023-04-27T11:49:17.000Z,14052
2023-04-27T11:50:32.699Z,13968
2023-04-27T11:51:49.000Z,14356
2023-04-27T11:53:06.000Z,14860
2023-04-27T11:54:22.000Z,19552
2023-04-27T11:55:37.454Z,26880
2023-04-27T11:56:53.643Z,65696
2023-04-27T11:58:09.832Z,85344
2023-04-27T11:59:26.000Z,68000
2023-04-27T12:00:42.000Z,70944
2023-04-27T12:01:58.000Z,44928
2023-04-27T12:03:14.000Z,77376
2023-04-27T12:04:29.791Z,76864
2023-04-27T12:05:46.000Z,75104
2023-04-27T12:07:03.000Z,63392
2023-04-27T12:08:19.000Z,51296
2023-04-27T12:09:34.546Z,34752
2023-04-27T12:10:51.000Z,41824
2023-04-27T12:12:07.000Z,51328
2023-04-27T12:13:23.112Z,57568
2023-04-27T12:14:39.301Z,50624
2023-04-27T12:15:55.000Z,33696
2023-04-27T12:17:11.000Z,56800
2023-04-27T12:18:26.883Z,65760
2023-04-27T12:19:44.000Z,63392
2023-04-27T12:21:00.000Z,61408
2023-04-27T12:22:16.000Z,58848
2023-04-27T12:23:32.000Z,48032
2023-04-27T12:24:48.000Z,32992
2023-04-27T12:26:04.017Z,51168
2023-04-27T12:27:21.000Z,60256
2023-04-27T12:28:37.000Z,60992
2023-04-27T12:29:52.584Z,61408
2023-04-27T12:31:09.000Z,55168
2023-04-27T12:32:24.000Z,36800
2023-04-27T12:33:41.000Z,26336
2023-04-27T12:34:56.356Z,32832
2023-04-27T12:36:13.000Z,44960
2023-04-27T12:37:29.000Z,44384
2023-04-27T12:38:44.922Z,52896
2023-04-27T12:40:02.000Z,64064
2023-04-27T12:41:17.299Z,62048
2023-04-27T12:42:34.000Z,38432
2023-04-27T12:43:50.000Z,38240
2023-04-27T12:45:05.865Z,60640
2023-04-27T12:46:23.000Z,66464
2023-04-27T12:47:39.000Z,68672
2023-04-27T12:48:54.000Z,68768
2023-04-27T12:50:10.000Z,66272
2023-04-27T12:51:26.000Z,64160
2023-04-27T12:52:43.000Z,65824
2023-04-27T12:53:59.000Z,46080
2023-04-27T12:55:15.000Z,37184
2023-04-27T12:56:31.000Z,63808
2023-04-27T12:57:47.000Z,69984
2023-04-27T12:59:03.000Z,71936
2023-04-27T13:00:20.000Z,71904
2023-04-27T13:01:36.000Z,69728
2023-04-27T13:02:52.000Z,67776
2023-04-27T13:04:07.714Z,52992
2023-04-27T13:05:22.919Z,34208
2023-04-27T13:06:40.000Z,25472
2023-04-27T13:07:56.000Z,32672
2023-04-27T13:09:12.000Z,38400
2023-04-27T13:10:28.000Z,43840
2023-04-27T13:11:43.863Z,51520
2023-04-27T13:13:01.000Z,55136
2023-04-27T13:14:17.000Z,55456
2023-04-27T13:15:33.000Z,51968
2023-04-27T13:16:49.000Z,47904
2023-04-27T13:18:05.000Z,44640
2023-04-27T13:19:21.000Z,32320
2023-04-27T13:20:38.000Z,22528
2023-04-27T13:21:53.000Z,50240
2023-04-27T13:23:09.000Z,47840
2023-04-27T13:24:25.000Z,42144
2023-04-27T13:25:40.960Z,46912
2023-04-27T13:26:58.000Z,53248
2023-04-27T13:28:14.000Z,57280
2023-04-27T13:29:29.527Z,48864
2023-04-27T13:30:46.000Z,47392
2023-04-27T13:32:02.000Z,47552
2023-04-27T13:33:19.000Z,39232
2023-04-27T13:34:35.000Z,31392
2023-04-27T13:35:51.000Z,34624
2023-04-27T13:37:06.662Z,40768
2023-04-27T13:38:22.000Z,39520
2023-04-27T13:39:39.000Z,38976
2023-04-27T13:40:55.000Z,38816
2023-04-27T13:42:11.000Z,37792
2023-04-27T13:43:27.000Z,32448
2023-04-27T13:44:43.000Z,21536
2023-04-27T13:45:59.000Z,26528
2023-04-27T13:47:16.000Z,23904
2023-04-27T13:48:32.000Z,19424
2023-04-27T13:49:47.565Z,22976
2023-04-27T13:51:03.755Z,18752
2023-04-27T13:52:19.943Z,22400
2023-04-27T13:53:37.000Z,29440
2023-04-27T13:54:52.000Z,30336
2023-04-27T13:56:08.000Z,30624
2023-04-27T13:57:24.000Z,30432
2023-04-27T13:58:40.000Z,29856
2023-04-27T13:59:57.000Z,29568
2023-04-27T14:01:12.279Z,28800
2023-04-27T14:02:28.000Z,31808
2023-04-27T14:03:44.000Z,34144
2023-04-27T14:05:00.000Z,36576
2023-04-27T14:06:16.057Z,26304
2023-04-27T14:07:32.245Z,29408
2023-04-27T14:08:49.000Z,38816
2023-04-27T14:10:05.000Z,40736
2023-04-27T14:11:21.000Z,38592
2023-04-27T14:12:38.000Z,37568
2023-04-27T14:13:54.000Z,37888
2023-04-27T14:15:10.000Z,39456
2023-04-27T14:16:26.000Z,40704
2023-04-27T14:17:42.000Z,40608
2023-04-27T14:18:57.000Z,41664
2023-04-27T14:20:14.000Z,43968
2023-04-27T14:21:29.338Z,46496
2023-04-27T14:22:46.000Z,44640
2023-04-27T14:24:02.000Z,42112
2023-04-27T14:25:17.905Z,29824
2023-04-27T14:26:35.000Z,25728
2023-04-27T14:27:51.000Z,36512
2023-04-27T14:29:07.000Z,37600
2023-04-27T14:30:23.000Z,37696
2023-04-27T14:31:39.000Z,32352
2023-04-27T14:32:56.000Z,36960
2023-04-27T14:34:12.000Z,36096
2023-04-27T14:35:27.000Z,34944
2023-04-27T14:36:43.000Z,36064
2023-04-27T14:37:59.000Z,34400
2023-04-27T14:39:16.000Z,28992
2023-04-27T14:40:32.000Z,27296
2023-04-27T14:41:48.000Z,30176
2023-04-27T14:43:04.000Z,20640
2023-04-27T14:44:20.000Z,30336
2023-04-27T14:45:36.000Z,25632
2023-04-27T14:46:53.000Z,20768
2023-04-27T14:48:09.000Z,30560
2023-04-27T14:49:24.510Z,31712
2023-04-27T14:50:40.699Z,30048
2023-04-27T14:51:56.000Z,32288
2023-04-27T14:53:13.000Z,32992
2023-04-27T14:54:29.000Z,33888
2023-04-27T14:55:44.470Z,34528
2023-04-27T14:57:01.000Z,36800
2023-04-27T14:58:16.848Z,35776
2023-04-27T14:59:33.038Z,32320
2023-04-27T15:00:50.000Z,35456
2023-04-27T15:02:05.415Z,32480
2023-04-27T15:03:22.000Z,31072
2023-04-27T15:04:37.793Z,30464
2023-04-27T15:05:54.000Z,26176
2023-04-27T15:07:11.000Z,20288
2023-04-27T15:08:27.000Z,19392
2023-04-27T15:09:42.000Z,22432
2023-04-27T15:10:58.000Z,23328
2023-04-27T15:12:13.943Z,23520
2023-04-27T15:13:31.000Z,22272
2023-04-27T15:14:47.000Z,20000
2023-04-27T15:16:03.000Z,18048
2023-04-27T15:17:19.000Z,16768
2023-04-27T15:18:35.000Z,15732
2023-04-27T15:19:52.000Z,14908
2023-04-27T15:21:08.000Z,13688
2023-04-27T15:22:24.000Z,13552
2023-04-27T15:23:40.000Z,13592
2023-04-27T15:24:56.000Z,12760
2023-04-27T15:26:12.000Z,12568
2023-04-27T15:27:28.000Z,12440
2023-04-27T15:28:44.000Z,12160
2023-04-27T15:30:00.000Z,11984
2023-04-27T15:31:15.785Z,11860
2023-04-27T15:32:32.000Z,11868
2023-04-27T15:33:48.163Z,11400
2023-04-27T15:35:05.000Z,11268
2023-04-27T15:36:20.539Z,11032
2023-04-27T15:37:37.000Z,10688
2023-04-27T15:38:53.000Z,10636
2023-04-27T15:40:10.000Z,10972
2023-04-27T15:41:26.000Z,10812
2023-04-27T15:42:41.000Z,10684
2023-04-27T15:43:57.000Z,10544
2023-04-27T15:45:13.000Z,10128
2023-04-27T15:46:30.000Z,9748
2023-04-27T15:47:46.000Z,9472
2023-04-27T15:49:01.443Z,9224
2023-04-27T15:50:18.000Z,8988
2023-04-27T15:51:34.000Z,8876
2023-04-27T15:52:50.009Z,8840
2023-04-27T15:54:07.000Z,8852
2023-04-27T15:55:23.000Z,8804
2023-04-27T15:56:39.000Z,8648
2023-04-27T15:57:55.000Z,8448
2023-04-27T15:59:10.000Z,8240
2023-04-27T16:00:26.155Z,8028
2023-04-27T16:01:43.000Z,7856
2023-04-27T16:02:59.000Z,7748
2023-04-27T16:04:15.000Z,7744
2023-04-27T16:05:31.000Z,7804
2023-04-27T16:06:48.000Z,7940
2023-04-27T16:08:04.000Z,8164
2023-04-27T16:09:20.000Z,8460
2023-04-27T16:10:36.000Z,8684
2023-04-27T16:11:52.000Z,8768
2023-04-27T16:13:09.000Z,8696
2023-04-27T16:14:25.000Z,8536
2023-04-27T16:15:40.000Z,8420
2023-04-27T16:16:56.000Z,8392
2023-04-27T16:18:12.000Z,8376
2023-04-27T16:19:28.000Z,8304
2023-04-27T16:20:45.000Z,8156
2023-04-27T16:22:01.000Z,8008
2023-04-27T16:23:17.000Z,7948
2023-04-27T16:24:33.000Z,8028
2023-04-27T16:25:48.935Z,8276
2023-04-27T16:27:06.000Z,8596
2023-04-27T16:28:22.000Z,8904
2023-04-27T16:29:38.000Z,9116
2023-04-27T16:30:54.000Z,9216
2023-04-27T16:32:09.000Z,9172
2023-04-27T16:33:26.000Z,8948
2023-04-27T16:34:42.000Z,8728
2023-04-27T16:35:58.000Z,8660
2023-04-27T16:37:13.647Z,8664
2023-04-27T16:38:30.000Z,8636
2023-04-27T16:39:46.026Z,8456
2023-04-27T16:41:03.000Z,8188
2023-04-27T16:42:18.402Z,7872
2023-04-27T16:43:35.000Z,7568
2023-04-27T16:44:50.778Z,7200
2023-04-27T16:46:07.000Z,6776
2023-04-27T16:47:24.000Z,6280
2023-04-27T16:48:39.000Z,5804
2023-04-27T16:49:55.000Z,5316
2023-04-27T16:51:11.000Z,4996
2023-04-27T16:52:26.921Z,4844
2023-04-27T16:53:44.000Z,4784
2023-04-27T16:55:00.000Z,4792
2023-04-27T16:56:16.000Z,4788
2023-04-27T16:57:32.000Z,4776
2023-04-27T16:58:48.000Z,4748
2023-04-27T17:00:05.000Z,4748
2023-04-27T17:01:21.000Z,4796
2023-04-27T17:02:37.000Z,4848
2023-04-27T17:03:53.000Z,4896
2023-04-27T17:05:08.000Z,4952